createdAt,value
2017-11-15T00:02:14.836Z,28.70
2017-11-15T00:04:41.200Z,34.58
2017-11-15T00:07:07.571Z,26.60
2017-11-15T00:09:33.955Z,30.73
2017-11-15T00:12:01.088Z,32.58
2017-11-15T00:14:27.457Z,30.95
2017-11-15T00:16:53.815Z,36.03
2017-11-15T00:19:21.164Z,31.70
2017-11-15T00:21:48.125Z,28.98
2017-11-15T00:24:14.503Z,24.90
2017-11-15T00:26:41.618Z,29.33
2017-11-15T00:29:07.979Z,27.65
2017-11-15T00:31:35.077Z,28.95
2017-11-15T00:34:02.411Z,23.87
2017-11-15T00:36:28.776Z,23.48
2017-11-15T00:38:55.171Z,25.45
2017-11-15T00:41:21.522Z,20.50
2017-11-15T00:43:47.892Z,22.52
2017-11-15T00:46:14.261Z,22.70
2017-11-15T00:48:40.671Z,21.25
2017-11-15T00:51:07.782Z,21.90
2017-11-15T00:53:34.139Z,23.70
2017-11-15T00:56:00.519Z,21.95
2017-11-15T00:58:26.892Z,23.40
2017-11-15T01:00:53.308Z,20.92
2017-11-15T01:03:19.664Z,22.30
2017-11-15T01:05:47.127Z,20.90
2017-11-15T01:08:13.497Z,21.17
2017-11-15T01:10:39.931Z,22.77
2017-11-15T01:13:06.322Z,22.87
2017-11-15T01:15:32.707Z,21.45
2017-11-15T01:17:59.196Z,21.40
2017-11-15T01:20:25.556Z,23.48
2017-11-15T01:22:53.512Z,27.92
2017-11-15T01:25:20.657Z,25.80
2017-11-15T01:27:48.783Z,22.67
2017-11-15T01:30:15.163Z,25.45
2017-11-15T01:32:41.579Z,27.77
2017-11-15T01:35:07.945Z,27.50
2017-11-15T01:37:35.117Z,28.20
2017-11-15T01:40:01.507Z,26.30
2017-11-15T01:42:27.876Z,21.77
2017-11-15T01:44:54.296Z,30.15
2017-11-15T01:47:20.716Z,26.98
2017-11-15T01:49:48.822Z,21.75
2017-11-15T01:52:15.187Z,23.33
2017-11-15T01:54:42.407Z,16.83
2017-11-15T01:57:08.795Z,24.05
2017-11-15T01:59:35.248Z,26.02
2017-11-15T02:02:02.364Z,21.17
2017-11-15T02:04:29.741Z,25.88
2017-11-15T02:06:56.119Z,23.40
2017-11-15T02:09:23.630Z,20.02
2017-11-15T02:11:50.040Z,25.27
2017-11-15T02:14:16.456Z,24.63
2017-11-15T02:16:42.843Z,22.35
2017-11-15T02:19:09.994Z,20.35
2017-11-15T02:21:37.130Z,20.73
2017-11-15T02:24:03.539Z,20.95
2017-11-15T02:26:29.971Z,18.35
2017-11-15T02:28:56.971Z,20.58
2017-11-15T02:31:24.108Z,20.85
2017-11-15T02:33:51.256Z,19.37
2017-11-15T02:36:19.412Z,19.95
2017-11-15T02:38:45.847Z,21.80
2017-11-15T02:41:12.273Z,23.60
2017-11-15T02:43:38.672Z,25.77
2017-11-15T02:46:05.081Z,20.70
2017-11-15T02:48:31.511Z,24.00
2017-11-15T02:50:57.924Z,22.10
2017-11-15T02:53:24.335Z,27.40
2017-11-15T02:55:50.754Z,24.40
2017-11-15T02:58:17.180Z,19.95
2017-11-15T03:00:43.580Z,20.37
2017-11-15T03:03:10.697Z,21.05
2017-11-15T03:05:37.079Z,17.20
2017-11-15T03:08:03.473Z,17.62
2017-11-15T03:10:29.879Z,18.15
2017-11-15T03:12:56.328Z,15.18
2017-11-15T03:15:22.707Z,19.62
2017-11-15T03:17:49.095Z,17.30
2017-11-15T03:20:15.512Z,18.58
2017-11-15T03:22:41.902Z,17.70
2017-11-15T03:25:08.326Z,14.18
2017-11-15T03:27:35.456Z,14.65
2017-11-15T03:30:01.872Z,15.63
2017-11-15T03:32:28.253Z,17.00
2017-11-15T03:34:54.643Z,15.45
2017-11-15T03:37:21.024Z,19.08
2017-11-15T03:39:47.392Z,22.00
2017-11-15T03:42:13.749Z,20.00
2017-11-15T03:44:40.156Z,20.73
2017-11-15T03:47:06.526Z,20.08
2017-11-15T03:49:33.628Z,20.62
2017-11-15T03:52:00.006Z,23.27
2017-11-15T03:54:27.132Z,20.25
2017-11-15T03:56:53.539Z,23.30
2017-11-15T03:59:19.908Z,20.30
2017-11-15T04:01:46.287Z,20.60
2017-11-15T04:04:12.644Z,24.70
2017-11-15T04:06:39.016Z,21.73
2017-11-15T04:09:05.407Z,22.40
2017-11-15T04:11:31.774Z,41.17
2017-11-15T04:13:58.128Z,22.02
2017-11-15T04:16:24.569Z,24.50
2017-11-15T04:18:50.980Z,26.27
2017-11-15T04:21:17.354Z,24.45
2017-11-15T04:23:43.755Z,21.02
2017-11-15T04:26:10.854Z,23.65
2017-11-15T04:28:37.211Z,44.60
2017-11-15T04:31:03.614Z,39.45
2017-11-15T04:33:29.984Z,22.40
2017-11-15T04:35:56.362Z,26.25
2017-11-15T04:38:22.729Z,32.85
2017-11-15T04:40:49.104Z,27.10
2017-11-15T04:43:16.211Z,27.48
2017-11-15T04:45:42.615Z,19.95
2017-11-15T04:48:09.010Z,24.05
2017-11-15T04:50:36.121Z,29.27
2017-11-15T04:53:02.483Z,21.87
2017-11-15T04:55:28.854Z,23.65
2017-11-15T04:57:55.277Z,23.48
2017-11-15T05:00:22.395Z,18.77
2017-11-15T05:02:48.788Z,20.17
2017-11-15T05:05:15.149Z,28.40
2017-11-15T05:07:41.536Z,31.62
2017-11-15T05:10:07.927Z,22.92
2017-11-15T05:12:35.304Z,25.55
2017-11-15T05:15:03.507Z,27.35
2017-11-15T05:17:29.886Z,27.67
2017-11-15T05:19:56.292Z,25.65
2017-11-15T05:22:22.699Z,35.35
2017-11-15T05:24:49.860Z,22.83
2017-11-15T05:27:16.275Z,20.92
2017-11-15T05:29:43.687Z,24.60
2017-11-15T05:32:11.106Z,32.20
2017-11-15T05:34:37.508Z,22.13
2017-11-15T05:37:04.622Z,23.62
2017-11-15T05:39:30.987Z,27.42
2017-11-15T05:41:58.127Z,25.88
2017-11-15T05:44:24.510Z,24.20
2017-11-15T05:46:50.885Z,24.30
2017-11-15T05:49:18.285Z,27.65
2017-11-15T05:51:45.696Z,23.70
2017-11-15T05:54:12.063Z,21.33
2017-11-15T05:56:39.191Z,20.48
2017-11-15T05:59:05.571Z,20.62
2017-11-15T06:01:31.940Z,24.73
2017-11-15T06:03:58.295Z,23.10
2017-11-15T06:06:25.425Z,23.02
2017-11-15T06:08:51.796Z,25.10
2017-11-15T06:11:18.248Z,20.98
2017-11-15T06:13:44.699Z,22.95
2017-11-15T06:16:10.968Z,25.70
2017-11-15T06:18:37.437Z,19.35
2017-11-15T06:21:03.795Z,21.35
2017-11-15T06:23:31.995Z,21.50
2017-11-15T06:25:59.311Z,19.40
2017-11-15T06:28:25.740Z,23.38
2017-11-15T06:30:52.196Z,29.15
2017-11-15T06:33:18.627Z,31.90
2017-11-15T06:35:44.901Z,34.45
2017-11-15T06:38:11.271Z,27.40
2017-11-15T06:40:37.641Z,26.33
2017-11-15T06:43:04.038Z,25.23
2017-11-15T06:45:30.428Z,22.70
2017-11-15T06:47:56.789Z,29.52
2017-11-15T06:50:23.156Z,26.77
2017-11-15T06:52:49.547Z,25.60
2017-11-15T06:55:16.641Z,29.50
2017-11-15T06:57:42.995Z,21.98
2017-11-15T07:00:09.410Z,25.42
2017-11-15T07:02:35.765Z,29.50
2017-11-15T07:05:02.160Z,25.73
2017-11-15T07:07:28.551Z,24.00
2017-11-15T07:09:55.668Z,28.75
2017-11-15T07:12:22.031Z,22.48
2017-11-15T07:14:49.148Z,27.25
2017-11-15T07:17:15.504Z,22.52
2017-11-15T07:19:41.880Z,27.20
2017-11-15T07:22:08.244Z,25.98
2017-11-15T07:24:34.608Z,22.37
2017-11-15T07:27:01.713Z,22.10
2017-11-15T07:29:28.099Z,19.92
2017-11-15T07:31:56.205Z,21.33
2017-11-15T07:34:23.645Z,24.12
2017-11-15T07:36:50.008Z,23.45
2017-11-15T07:39:16.376Z,24.08
2017-11-15T07:41:42.743Z,28.48
2017-11-15T07:44:09.128Z,24.12
2017-11-15T07:46:35.497Z,20.45
2017-11-15T07:49:02.608Z,19.08
2017-11-15T07:51:28.975Z,18.80
2017-11-15T07:53:56.076Z,20.58
2017-11-15T07:56:22.464Z,22.60
2017-11-15T07:58:49.572Z,23.80
2017-11-15T08:01:15.940Z,19.90
2017-11-15T08:03:43.061Z,20.15
2017-11-15T08:06:09.431Z,28.67
2017-11-15T08:08:36.536Z,19.30
2017-11-15T08:11:02.908Z,21.85
2017-11-15T08:13:30.011Z,23.20
2017-11-15T08:15:56.389Z,23.50
2017-11-15T08:18:23.487Z,27.80
2017-11-15T08:20:49.863Z,22.83
2017-11-15T08:23:16.985Z,17.85
2017-11-15T08:25:43.376Z,24.80
2017-11-15T08:28:09.744Z,20.27
2017-11-15T08:30:37.195Z,20.40
2017-11-15T08:33:03.568Z,22.33
2017-11-15T08:35:30.677Z,21.05
2017-11-15T08:37:57.040Z,26.95
2017-11-15T08:40:23.439Z,26.15
2017-11-15T08:42:50.829Z,20.20
2017-11-15T08:45:17.238Z,26.05
2017-11-15T08:47:43.636Z,46.88
2017-11-15T08:50:10.055Z,21.42
2017-11-15T08:52:37.202Z,15.35
2017-11-15T08:55:03.588Z,17.73
2017-11-15T08:57:29.979Z,18.45
2017-11-15T08:59:56.393Z,19.67
2017-11-15T09:02:23.572Z,18.40
2017-11-15T09:04:49.972Z,25.50
2017-11-15T09:07:17.085Z,21.92
2017-11-15T09:09:43.476Z,18.67
2017-11-15T09:12:09.880Z,19.20
2017-11-15T09:14:36.251Z,23.80
2017-11-15T09:17:02.684Z,23.15
2017-11-15T09:19:29.071Z,31.52
2017-11-15T09:21:55.446Z,25.65
2017-11-15T09:24:21.804Z,23.12
2017-11-15T09:26:49.187Z,19.45
2017-11-15T09:29:15.556Z,19.42
2017-11-15T09:31:43.728Z,22.75
2017-11-15T09:34:10.920Z,19.33
2017-11-15T09:36:37.284Z,21.83
2017-11-15T09:39:03.683Z,22.48
2017-11-15T09:41:30.040Z,21.58
2017-11-15T09:43:56.424Z,22.90
2017-11-15T09:46:22.780Z,19.60
2017-11-15T09:48:49.140Z,18.45
2017-11-15T09:51:15.545Z,20.73
2017-11-15T09:53:42.970Z,18.67
2017-11-15T09:56:09.357Z,19.60
2017-11-15T09:58:35.729Z,22.08
2017-11-15T10:01:02.855Z,18.77
2017-11-15T10:03:29.215Z,21.27
2017-11-15T10:05:56.607Z,19.23
2017-11-15T10:08:22.988Z,24.45
2017-11-15T10:10:50.092Z,25.48
2017-11-15T10:13:17.214Z,22.15
2017-11-15T10:15:43.609Z,24.92
2017-11-15T10:18:09.977Z,23.62
2017-11-15T10:20:36.340Z,23.92
2017-11-15T10:23:02.716Z,25.33
2017-11-15T10:25:29.076Z,29.42
2017-11-15T10:27:55.443Z,23.65
2017-11-15T10:30:21.833Z,21.90
2017-11-15T10:32:48.951Z,22.58
2017-11-15T10:35:15.320Z,21.15
2017-11-15T10:37:41.920Z,22.58
2017-11-15T10:40:08.316Z,23.73
2017-11-15T10:42:34.680Z,19.67
2017-11-15T10:45:01.040Z,24.85
2017-11-15T10:47:28.132Z,20.40
2017-11-15T10:49:54.490Z,22.60
2017-11-15T10:52:20.869Z,20.15
2017-11-15T10:54:47.245Z,19.75
2017-11-15T10:57:13.632Z,21.62
2017-11-15T10:59:40.763Z,18.98
2017-11-15T11:02:07.129Z,20.42
2017-11-15T11:04:34.541Z,19.27
2017-11-15T11:07:01.240Z,20.00
2017-11-15T11:09:28.641Z,19.58
2017-11-15T11:11:55.032Z,19.17
2017-11-15T11:14:21.463Z,18.92
2017-11-15T11:16:47.837Z,19.17
2017-11-15T11:19:14.266Z,22.55
2017-11-15T11:21:40.668Z,22.48
2017-11-15T11:24:07.048Z,25.95
2017-11-15T11:26:34.162Z,20.48
2017-11-15T11:29:00.516Z,19.62
2017-11-15T11:31:27.685Z,18.98
2017-11-15T11:33:54.785Z,20.25
2017-11-15T11:36:21.180Z,16.52
2017-11-15T11:38:49.292Z,18.50
2017-11-15T11:41:15.655Z,17.45
2017-11-15T11:43:42.028Z,18.62
2017-11-15T11:46:08.383Z,18.10
2017-11-15T11:48:34.742Z,18.20
2017-11-15T11:51:01.119Z,16.15
2017-11-15T11:53:27.484Z,16.45
2017-11-15T11:55:53.880Z,14.50
2017-11-15T11:58:21.016Z,20.05
2017-11-15T12:00:48.128Z,16.50
2017-11-15T12:03:14.516Z,13.32
2017-11-15T12:05:41.677Z,16.35
2017-11-15T12:08:08.063Z,14.20
2017-11-15T12:10:34.448Z,18.90
2017-11-15T12:13:00.856Z,15.23
2017-11-15T12:15:27.981Z,15.85
2017-11-15T12:17:54.360Z,14.27
2017-11-15T12:20:20.736Z,14.55
2017-11-15T12:22:47.127Z,17.50
2017-11-15T12:25:13.517Z,12.57
2017-11-15T12:27:39.921Z,16.30
2017-11-15T12:30:06.299Z,12.82
2017-11-15T12:32:33.412Z,12.13
2017-11-15T12:34:59.785Z,11.20
2017-11-15T12:37:26.933Z,11.38
2017-11-15T12:39:54.063Z,10.60
2017-11-15T12:42:20.462Z,11.40
2017-11-15T12:44:46.864Z,12.57
2017-11-15T12:47:13.257Z,12.00
2017-11-15T12:49:39.664Z,10.33
2017-11-15T12:52:06.043Z,11.03
2017-11-15T12:54:33.169Z,12.37
2017-11-15T12:56:59.552Z,10.73
2017-11-15T12:59:25.929Z,11.93
2017-11-15T13:01:53.336Z,10.17
2017-11-15T13:04:19.705Z,10.63
2017-11-15T13:06:46.123Z,12.17
2017-11-15T13:09:12.492Z,14.60
2017-11-15T13:11:38.881Z,12.30
2017-11-15T13:14:05.296Z,14.30
2017-11-15T13:16:32.496Z,11.83
2017-11-15T13:18:58.909Z,13.77
2017-11-15T13:21:25.312Z,13.55
2017-11-15T13:23:52.452Z,13.77
2017-11-15T13:26:19.621Z,13.57
2017-11-15T13:28:46.028Z,12.93
2017-11-15T13:31:12.415Z,11.37
2017-11-15T13:33:38.791Z,11.27
2017-11-15T13:36:05.191Z,11.63
2017-11-15T13:38:31.568Z,14.25
2017-11-15T13:40:58.673Z,11.20
2017-11-15T13:43:25.123Z,10.90
2017-11-15T13:45:51.534Z,12.93
2017-11-15T13:48:17.915Z,9.87
2017-11-15T13:50:44.321Z,13.53
2017-11-15T13:53:10.692Z,9.27
2017-11-15T13:55:37.804Z,10.80
2017-11-15T13:58:04.198Z,10.60
2017-11-15T14:00:30.569Z,11.53
2017-11-15T14:02:56.961Z,13.30
2017-11-15T14:05:23.336Z,11.90
2017-11-15T14:07:49.708Z,12.40
2017-11-15T14:10:16.816Z,12.50
2017-11-15T14:12:43.184Z,15.07
2017-11-15T14:15:10.284Z,11.63
2017-11-15T14:17:36.662Z,12.52
2017-11-15T14:20:03.788Z,11.88
2017-11-15T14:22:30.328Z,15.40
2017-11-15T14:24:56.718Z,12.10
2017-11-15T14:27:23.092Z,13.27
2017-11-15T14:29:49.460Z,14.02
2017-11-15T14:32:15.834Z,12.98
2017-11-15T14:34:42.208Z,12.02
2017-11-15T14:37:09.314Z,10.80
2017-11-15T14:39:35.696Z,10.70
2017-11-15T14:42:02.808Z,11.00
2017-11-15T14:44:29.167Z,10.98
2017-11-15T14:46:55.537Z,10.95
2017-11-15T14:49:21.897Z,13.13
2017-11-15T14:51:48.270Z,10.55
2017-11-15T14:54:15.381Z,12.07
2017-11-15T14:56:41.760Z,12.18
2017-11-15T14:59:08.881Z,13.48
2017-11-15T15:01:35.256Z,14.95
2017-11-15T15:04:01.637Z,13.62
2017-11-15T15:06:28.027Z,12.82
2017-11-15T15:08:54.412Z,13.93
2017-11-15T15:11:20.773Z,13.43
2017-11-15T15:13:47.890Z,12.10
2017-11-15T15:16:14.244Z,12.45
2017-11-15T15:18:40.620Z,13.82
2017-11-15T15:21:06.979Z,16.23
2017-11-15T15:23:33.337Z,19.30
2017-11-15T15:25:59.701Z,16.85
2017-11-15T15:28:26.088Z,16.08
2017-11-15T15:30:53.796Z,19.17
2017-11-15T15:33:20.916Z,16.00
2017-11-15T15:35:48.033Z,20.20
2017-11-15T15:38:14.392Z,17.85
2017-11-15T15:40:40.757Z,18.92
2017-11-15T15:43:07.136Z,29.73
2017-11-15T15:45:33.525Z,35.13
2017-11-15T15:48:00.639Z,40.65
2017-11-15T15:50:27.012Z,42.13
2017-11-15T15:52:53.368Z,48.33
2017-11-15T15:55:19.729Z,48.80
2017-11-15T15:57:46.118Z,47.28
2017-11-15T16:00:12.492Z,52.25
2017-11-15T16:02:38.840Z,48.40
2017-11-15T16:05:05.242Z,44.22
2017-11-15T16:07:31.612Z,45.42
2017-11-15T16:09:57.972Z,43.67
2017-11-15T16:12:24.332Z,43.30
2017-11-15T16:14:50.688Z,43.17
2017-11-15T16:17:17.808Z,49.65
2017-11-15T16:19:44.169Z,44.70
2017-11-15T16:22:10.543Z,39.58
2017-11-15T16:24:37.643Z,44.85
2017-11-15T16:27:05.038Z,40.80
2017-11-15T16:29:32.159Z,39.70
2017-11-15T16:31:58.519Z,42.30
2017-11-15T16:34:25.640Z,46.83
2017-11-15T16:36:52.027Z,47.20
2017-11-15T16:39:18.385Z,50.20
2017-11-15T16:41:44.787Z,39.42
2017-11-15T16:44:11.149Z,41.40
2017-11-15T16:46:37.524Z,37.00
2017-11-15T16:49:03.885Z,40.45
2017-11-15T16:51:30.244Z,36.78
2017-11-15T16:53:57.612Z,42.22
2017-11-15T16:56:23.976Z,38.85
2017-11-15T16:58:50.334Z,40.50
2017-11-15T17:01:17.423Z,34.97
2017-11-15T17:03:43.795Z,35.22
2017-11-15T17:06:10.160Z,38.92
2017-11-15T17:08:36.552Z,39.25
2017-11-15T17:11:02.949Z,39.17
2017-11-15T17:13:30.054Z,47.05
2017-11-15T17:15:57.159Z,36.88
2017-11-15T17:18:23.577Z,39.42
2017-11-15T17:20:49.944Z,39.85
2017-11-15T17:23:16.299Z,40.22
2017-11-15T17:25:43.417Z,37.72
2017-11-15T17:28:09.795Z,35.28
2017-11-15T17:30:36.210Z,34.17
2017-11-15T17:33:03.360Z,36.03
2017-11-15T17:35:30.478Z,42.40
2017-11-15T17:37:56.843Z,33.05
2017-11-15T17:40:23.965Z,34.90
2017-11-15T17:42:50.340Z,37.00
2017-11-15T17:45:17.504Z,37.65
2017-11-15T17:47:43.901Z,37.60
2017-11-15T17:50:10.301Z,32.83
2017-11-15T17:52:36.696Z,39.10
2017-11-15T17:55:03.058Z,32.63
2017-11-15T17:57:29.616Z,34.72
2017-11-15T17:59:55.976Z,33.55
2017-11-15T18:02:23.085Z,36.80
2017-11-15T18:04:50.448Z,31.15
2017-11-15T18:07:16.811Z,33.92
2017-11-15T18:09:43.180Z,32.53
2017-11-15T18:12:09.552Z,35.10
2017-11-15T18:14:35.935Z,35.70
2017-11-15T18:17:02.291Z,35.60
2017-11-15T18:19:28.661Z,32.60
2017-11-15T18:21:55.047Z,40.53
2017-11-15T18:24:21.403Z,37.35
2017-11-15T18:26:47.790Z,39.03
2017-11-15T18:29:15.038Z,39.88
2017-11-15T18:31:41.427Z,42.15
2017-11-15T18:34:07.831Z,44.08
2017-11-15T18:36:34.198Z,45.05
2017-11-15T18:39:00.595Z,36.22
2017-11-15T18:41:26.949Z,43.80
2017-11-15T18:43:54.394Z,39.28
2017-11-15T18:46:20.760Z,44.00
2017-11-15T18:48:47.107Z,42.08
2017-11-15T18:51:13.463Z,44.67
2017-11-15T18:53:40.587Z,41.10
2017-11-15T18:56:06.952Z,43.38
2017-11-15T18:58:34.315Z,43.15
2017-11-15T19:01:00.717Z,44.10
2017-11-15T19:03:28.804Z,44.63
2017-11-15T19:05:55.890Z,46.97
2017-11-15T19:08:22.240Z,43.63
2017-11-15T19:10:48.636Z,45.12
2017-11-15T19:13:14.999Z,49.72
2017-11-15T19:15:41.385Z,46.97
2017-11-15T19:18:08.497Z,47.28
2017-11-15T19:20:34.878Z,41.58
2017-11-15T19:23:01.260Z,40.70
2017-11-15T19:25:27.620Z,40.47
2017-11-15T19:27:54.728Z,41.05
2017-11-15T19:30:21.093Z,44.47
2017-11-15T19:32:47.516Z,43.60
2017-11-15T19:35:13.880Z,46.95
2017-11-15T19:37:41.961Z,41.80
2017-11-15T19:40:08.308Z,41.83
2017-11-15T19:42:34.681Z,43.85
2017-11-15T19:45:01.043Z,43.20
2017-11-15T19:47:28.168Z,43.53
2017-11-15T19:49:54.540Z,48.13
2017-11-15T19:52:20.917Z,52.95
2017-11-15T19:54:48.255Z,46.35
2017-11-15T19:57:14.647Z,50.55
2017-11-15T19:59:41.984Z,49.63
2017-11-15T20:02:08.396Z,44.55
2017-11-15T20:04:34.793Z,48.92
2017-11-15T20:07:01.395Z,52.85
2017-11-15T20:09:28.025Z,51.00
2017-11-15T20:11:54.376Z,47.58
2017-11-15T20:14:21.741Z,48.33
2017-11-15T20:16:48.943Z,48.00
2017-11-15T20:19:15.628Z,48.47
2017-11-15T20:21:42.729Z,52.08
2017-11-15T20:24:09.329Z,56.85
2017-11-15T20:26:35.884Z,51.10
2017-11-15T20:29:02.508Z,53.20
2017-11-15T20:31:29.063Z,56.65
2017-11-15T20:33:56.224Z,51.88
2017-11-15T20:36:22.592Z,48.28
2017-11-15T20:38:49.024Z,47.72
2017-11-15T20:41:15.624Z,46.55
2017-11-15T20:43:42.220Z,57.22
2017-11-15T20:46:09.549Z,46.55
2017-11-15T20:48:36.061Z,48.13
2017-11-15T20:51:02.475Z,39.58
2017-11-15T20:53:28.846Z,41.53
2017-11-15T20:55:55.357Z,44.83
2017-11-15T20:58:21.992Z,43.97
2017-11-15T21:00:48.488Z,46.50
2017-11-15T21:03:15.828Z,45.95
2017-11-15T21:05:42.947Z,42.85
2017-11-15T21:08:09.320Z,48.22
2017-11-15T21:10:36.424Z,50.92
2017-11-15T21:13:02.795Z,51.80
2017-11-15T21:15:29.899Z,43.83
2017-11-15T21:17:56.255Z,37.72
2017-11-15T21:20:22.643Z,35.78
2017-11-15T21:22:49.051Z,33.85
2017-11-15T21:25:17.168Z,39.63
2017-11-15T21:27:43.548Z,37.53
2017-11-15T21:30:10.663Z,42.03
2017-11-15T21:32:37.016Z,45.58
2017-11-15T21:35:04.292Z,48.87
2017-11-15T21:37:31.387Z,37.65
2017-11-15T21:39:57.749Z,45.15
2017-11-15T21:42:24.119Z,45.08
2017-11-15T21:44:50.504Z,44.03
2017-11-15T21:47:17.743Z,37.72
2017-11-15T21:49:44.093Z,39.97
2017-11-15T21:52:10.457Z,44.33
2017-11-15T21:54:37.573Z,46.33
2017-11-15T21:57:04.627Z,43.10
2017-11-15T21:59:30.976Z,50.30
2017-11-15T22:01:57.355Z,45.33
2017-11-15T22:04:23.736Z,50.70
2017-11-15T22:06:50.128Z,45.65
2017-11-15T22:09:16.487Z,42.17
2017-11-15T22:11:42.848Z,41.97
2017-11-15T22:14:09.950Z,44.53
2017-11-15T22:16:36.323Z,51.13
2017-11-15T22:19:04.053Z,47.90
2017-11-15T22:21:31.432Z,44.03
2017-11-15T22:23:57.791Z,49.10
2017-11-15T22:26:24.887Z,52.80
2017-11-15T22:28:51.252Z,51.97
2017-11-15T22:31:17.612Z,46.42
2017-11-15T22:33:45.029Z,56.15
2017-11-15T22:36:11.380Z,42.67
2017-11-15T22:38:38.520Z,50.33
2017-11-15T22:41:04.895Z,55.30
2017-11-15T22:43:31.255Z,49.22
2017-11-15T22:45:57.607Z,46.85
2017-11-15T22:48:23.957Z,54.45
2017-11-15T22:50:51.044Z,38.10
2017-11-15T22:53:17.411Z,36.90
2017-11-15T22:55:43.788Z,45.22
2017-11-15T22:58:10.884Z,43.33
2017-11-15T23:00:37.984Z,47.58
2017-11-15T23:03:05.115Z,46.08
2017-11-15T23:05:31.479Z,44.17
2017-11-15T23:07:57.843Z,41.03
2017-11-15T23:10:24.272Z,45.28
2017-11-15T23:12:50.635Z,42.70
2017-11-15T23:15:17.020Z,66.57
2017-11-15T23:17:43.372Z,68.00
2017-11-15T23:20:09.723Z,50.70
2017-11-15T23:22:36.086Z,43.53
2017-11-15T23:25:04.252Z,49.05
2017-11-15T23:27:30.640Z,46.30
2017-11-15T23:29:57.000Z,81.68
2017-11-15T23:32:23.354Z,53.90
2017-11-15T23:34:50.480Z,57.88
2017-11-15T23:37:16.849Z,52.20
2017-11-15T23:39:43.970Z,49.33
2017-11-15T23:42:10.345Z,67.22
2017-11-15T23:44:36.751Z,52.60
2017-11-15T23:47:04.797Z,59.13
2017-11-15T23:49:31.171Z,61.45
2017-11-15T23:51:59.292Z,67.68
2017-11-15T23:54:25.664Z,64.30
2017-11-15T23:56:52.765Z,85.82
2017-11-15T23:59:19.188Z,91.90
